^^
Station Historical Data
Daily Summary for January 12, 2017 Units:  English    Metric   Both
« Previous Day
Next Day »
Daily Weekly Monthly Yearly Custom
  High: Low: Average:
Temperature: 62.4 °F 43.5 °F 55.5 °F
Dew Point: 54.6 °F 42.2 °F 50.8 °F
Humidity: 96% 73% 85%
Wind Speed: 13.0mph 0.0mph 5.8mph
Wind Gust: 23.0mph - -
Wind- - SSW
Pressure: 30.19 in 29.98 in -
Precipitation: 0.10 in    
Historical Graphs
 
 
Tabular Data for January 12, 2017
Time Temperature Dew Point Pressure Wind Wind Speed Wind Gust Humidity Rainfall Rate (Hourly) Conditions
00:00 43.5 °F 42.2 °F 30.19 in Calm   6.0 mph 95% 0.00 in -RA
00:10 43.8 °F 42.7 °F 30.19 in South 3.0 mph 10.0 mph 96% 0.01 in -RA
00:20 44.3 °F 43.2 °F 30.19 in South 5.0 mph 12.0 mph 96% 0.01 in -RA
00:30 44.7 °F 43.6 °F 30.19 in SSW 7.0 mph 12.0 mph 96% 0.01 in -RA
00:40 45.1 °F 44.0 °F 30.17 in SSW 5.0 mph 12.0 mph 96% 0.00 in -RA
00:50 45.6 °F 44.5 °F 30.17 in SSW 7.0 mph 18.0 mph 96% 0.01 in -RA
01:00 45.8 °F 44.7 °F 30.17 in South 5.0 mph 13.0 mph 96% 0.00 in -RA
01:10 45.9 °F 44.8 °F 30.17 in SSW 6.0 mph 15.0 mph 96% 0.00 in -RA
01:20 46.0 °F 44.6 °F 30.17 in SSW 3.0 mph 20.0 mph 95% 0.00 in -RA
01:30 46.0 °F 44.6 °F 30.16 in SSW 5.0 mph 12.0 mph 95% 0.01 in -RA
01:40 46.1 °F 45.0 °F 30.16 in SSW 5.0 mph 14.0 mph 96% 0.00 in -RA
01:50 46.3 °F 45.2 °F 30.15 in SSW 7.0 mph 13.0 mph 96% 0.00 in -RA
02:00 46.4 °F 45.3 °F 30.15 in South 5.0 mph 13.0 mph 96% 0.00 in -RA
02:10 46.5 °F 45.4 °F 30.15 in SSW 7.0 mph 16.0 mph 96% 0.00 in -RA
02:20 46.7 °F 45.6 °F 30.15 in SW 6.0 mph 12.0 mph 96% 0.02 in -RA
02:30 46.9 °F 45.8 °F 30.16 in South 7.0 mph 16.0 mph 96% 0.02 in -RA
02:40 47.1 °F 46.0 °F 30.15 in South 7.0 mph 15.0 mph 96% 0.01 in -RA
02:50 47.4 °F 46.3 °F 30.15 in SSW 5.0 mph 13.0 mph 96% 0.00 in -RA
03:00 47.7 °F 46.6 °F 30.15 in SSW 8.0 mph 16.0 mph 96% 0.00 in -RA
03:10 48.0 °F 46.9 °F 30.15 in SSW 13.0 mph 20.0 mph 96% 0.00 in OVC
03:20 48.3 °F 47.2 °F 30.15 in South 9.0 mph 20.0 mph 96% 0.00 in OVC
03:30 48.6 °F 47.5 °F 30.14 in SW 7.0 mph 21.0 mph 96% 0.00 in OVC
03:40 48.8 °F 47.4 °F 30.14 in SSW 6.0 mph 21.0 mph 95% 0.00 in OVC
03:50 49.0 °F 47.6 °F 30.14 in South 9.0 mph 21.0 mph 95% 0.00 in OVC
04:00 49.2 °F 47.8 °F 30.14 in South 10.0 mph 18.0 mph 95% 0.00 in OVC
04:10 49.5 °F 48.1 °F 30.13 in SW 9.0 mph 18.0 mph 95% 0.00 in BKN
04:20 49.9 °F 48.5 °F 30.12 in SSW 8.0 mph 20.0 mph 95% 0.00 in BKN
04:30 50.1 °F 48.4 °F 30.11 in SSW 8.0 mph 20.0 mph 94% 0.00 in BKN
04:40 50.4 °F 48.7 °F 30.11 in SSW 13.0 mph 21.0 mph 94% 0.00 in BKN
04:50 50.6 °F 48.9 °F 30.11 in SSW 9.0 mph 23.0 mph 94% 0.00 in BKN
05:00 50.6 °F 48.9 °F 30.11 in SSW 8.0 mph 18.0 mph 94% 0.00 in BKN
05:10 50.7 °F 49.0 °F 30.11 in South 6.0 mph 14.0 mph 94% 0.00 in BKN
05:20 50.8 °F 49.1 °F 30.10 in SSW 8.0 mph 15.0 mph 94% 0.00 in BKN
05:30 50.8 °F 49.2 °F 30.10 in SSW 7.0 mph 20.0 mph 94% 0.00 in BKN
05:40 51.0 °F 49.3 °F 30.10 in SSW 7.0 mph 13.0 mph 94% 0.00 in BKN
05:50 51.0 °F 49.0 °F 30.09 in SSW 5.0 mph 17.0 mph 93% 0.00 in BKN
06:00 51.1 °F 49.1 °F 30.10 in SSW 7.0 mph 13.0 mph 93% 0.00 in BKN
06:10 51.2 °F 49.2 °F 30.09 in South 6.0 mph 13.0 mph 93% 0.00 in BKN
06:20 51.2 °F 49.2 °F 30.10 in SSW 6.0 mph 17.0 mph 93% 0.00 in BKN
06:30 51.4 °F 49.4 °F 30.10 in SSW 7.0 mph 17.0 mph 93% 0.00 in BKN
06:40 51.4 °F 49.4 °F 30.09 in SSW 8.0 mph 16.0 mph 93% 0.00 in BKN
06:50 51.5 °F 49.5 °F 30.09 in South 7.0 mph 13.0 mph 93% 0.00 in BKN
07:00 51.5 °F 49.5 °F 30.10 in SSW 5.0 mph 14.0 mph 93% 0.00 in BKN
07:10 51.5 °F 49.5 °F 30.10 in South 7.0 mph 17.0 mph 93% 0.00 in BKN
07:20 51.7 °F 49.5 °F 30.09 in SSW 7.0 mph 16.0 mph 92% 0.00 in BKN
07:30 51.7 °F 49.5 °F 30.09 in South 10.0 mph 18.0 mph 92% 0.00 in BKN
07:40 51.7 °F 49.5 °F 30.09 in SSW 7.0 mph 17.0 mph 92% 0.00 in BKN
07:50 51.8 °F 49.5 °F 30.09 in South 6.0 mph 18.0 mph 92% 0.00 in BKN
08:00 52.0 °F 49.7 °F 30.09 in South 7.0 mph 16.0 mph 92% 0.00 in BKN
08:10 52.1 °F 49.8 °F 30.10 in SSW 5.0 mph 14.0 mph 92% 0.00 in BKN
08:20 52.2 °F 49.9 °F 30.10 in South 6.0 mph 16.0 mph 92% 0.00 in BKN
08:30 52.2 °F 49.9 °F 30.10 in SSW 5.0 mph 16.0 mph 92% 0.00 in BKN
08:40 52.2 °F 50.0 °F 30.10 in South 3.0 mph 16.0 mph 92% 0.00 in BKN
08:50 52.3 °F 50.0 °F 30.10 in SW 6.0 mph 14.0 mph 92% 0.00 in BKN
09:00 52.5 °F 50.2 °F 30.10 in SSW 8.0 mph 17.0 mph 92% 0.00 in BKN
09:10 52.6 °F 50.3 °F 30.10 in South 6.0 mph 15.0 mph 92% 0.00 in BKN
09:20 52.8 °F 50.2 °F 30.09 in South 8.0 mph 16.0 mph 91% 0.00 in BKN
09:30 52.8 °F 50.2 °F 30.09 in SSW 8.0 mph 16.0 mph 91% 0.00 in BKN
09:40 53.0 °F 50.4 °F 30.09 in SSW 8.0 mph 16.0 mph 91% 0.00 in BKN
09:50 53.1 °F 50.5 °F 30.09 in SSW 7.0 mph 13.0 mph 91% 0.00 in BKN
10:00 53.4 °F 50.8 °F 30.08 in South 7.0 mph 13.0 mph 91% 0.00 in BKN
10:10 53.7 °F 50.8 °F 30.08 in SSW 5.0 mph 18.0 mph 90% 0.00 in BKN
10:20 53.9 °F 51.0 °F 30.08 in South 7.0 mph 13.0 mph 90% 0.00 in BKN
10:30 54.0 °F 51.1 °F 30.08 in South 7.0 mph 12.0 mph 90% 0.00 in BKN
10:40 53.9 °F 51.0 °F 30.07 in South 3.0 mph 12.0 mph 90% 0.00 in BKN
10:50 53.9 °F 51.0 °F 30.08 in SSW 3.0 mph 12.0 mph 90% 0.00 in BKN
11:00 53.8 °F 50.9 °F 30.07 in SSW 6.0 mph 15.0 mph 90% 0.00 in BKN
11:10 53.8 °F 50.9 °F 30.06 in SSW 5.0 mph 13.0 mph 90% 0.00 in SCT
11:20 53.8 °F 50.9 °F 30.06 in South 2.0 mph 12.0 mph 90% 0.00 in SCT
11:30 53.9 °F 51.1 °F 30.05 in SW 6.0 mph 12.0 mph 90% 0.00 in SCT
11:40 54.2 °F 51.3 °F 30.05 in SSW 6.0 mph 12.0 mph 90% 0.00 in SCT
11:50 54.7 °F 51.8 °F 30.05 in SSW 3.0 mph 15.0 mph 90% 0.00 in SCT
12:00 55.3 °F 52.1 °F 30.05 in South 3.0 mph 18.0 mph 89% 0.00 in SCT
12:20 56.5 °F 52.6 °F 30.03 in SSW 6.0 mph 15.0 mph 87% 0.00 in BKN
12:30 57.2 °F 53.0 °F 30.02 in SSW 3.0 mph 12.0 mph 86% 0.00 in BKN
12:40 57.3 °F 52.8 °F 30.00 in South 5.0 mph 12.0 mph 85% 0.00 in BKN
12:50 58.2 °F 53.4 °F 30.02 in SW 6.0 mph 12.0 mph 84% 0.00 in BKN
13:00 58.9 °F 53.7 °F 30.00 in South 7.0 mph 14.0 mph 83% 0.00 in BKN
13:10 59.2 °F 53.7 °F 29.99 in SSW 2.0 mph 14.0 mph 82% 0.00 in SCT
13:20 60.4 °F 54.2 °F 29.99 in SSW 2.0 mph 12.0 mph 80% 0.00 in SCT
13:30 61.2 °F 54.6 °F 30.00 in SSW 5.0 mph 12.0 mph 79% 0.00 in SCT
13:40 61.3 °F 54.4 °F 30.00 in SW 5.0 mph 8.0 mph 78% 0.00 in SCT
13:50 61.9 °F 54.2 °F 30.00 in SSW 2.0 mph 9.0 mph 76% 0.00 in SCT
14:00 62.1 °F 54.1 °F 30.00 in SW 8.0 mph 13.0 mph 75% 0.00 in SCT
14:10 62.2 °F 54.2 °F 29.99 in SSW 8.0 mph 16.0 mph 75% 0.00 in SCT
14:20 62.3 °F 53.9 °F 29.98 in SSW 5.0 mph 14.0 mph 74% 0.00 in SCT
14:30 62.2 °F 53.8 °F 29.99 in SSW 7.0 mph 12.0 mph 74% 0.00 in SCT
14:40 62.3 °F 53.9 °F 29.98 in SSW 5.0 mph 12.0 mph 74% 0.00 in SCT
14:50 62.4 °F 54.0 °F 29.99 in SSW 5.0 mph 12.0 mph 74% 0.00 in SCT
15:00 62.4 °F 54.0 °F 29.98 in SSE 3.0 mph 12.0 mph 74% 0.00 in SCT
15:10 62.4 °F 54.0 °F 29.99 in SSW 3.0 mph 10.0 mph 74% 0.00 in BKN
15:20 62.3 °F 53.9 °F 29.98 in SSW 5.0 mph 12.0 mph 74% 0.00 in BKN
15:30 62.1 °F 54.1 °F 29.98 in SSW 3.0 mph 12.0 mph 75% 0.00 in BKN
15:40 62.1 °F 54.1 °F 29.98 in SSW 5.0 mph 11.0 mph 75% 0.00 in BKN
15:50 62.3 °F 53.5 °F 29.99 in South 5.0 mph 17.0 mph 73% 0.00 in BKN
16:00 62.1 °F 53.4 °F 29.99 in South 6.0 mph 17.0 mph 73% 0.00 in BKN
16:10 62.2 °F 53.4 °F 29.98 in SSW 8.0 mph 18.0 mph 73% 0.00 in SCT
16:20 62.2 °F 53.4 °F 29.98 in South 7.0 mph 15.0 mph 73% 0.00 in SCT
16:30 62.1 °F 53.3 °F 29.99 in SW 7.0 mph 14.0 mph 73% 0.00 in SCT
16:40 62.0 °F 53.2 °F 29.98 in SW 10.0 mph 16.0 mph 73% 0.00 in SCT
16:50 61.8 °F 53.4 °F 29.98 in South 7.0 mph 17.0 mph 74% 0.00 in SCT
17:00 61.5 °F 53.2 °F 29.98 in South 7.0 mph 17.0 mph 74% 0.00 in SCT
17:10 61.6 °F 53.2 °F 29.98 in SSW 8.0 mph 16.0 mph 74% 0.00 in BKN
17:20 61.6 °F 53.2 °F 30.00 in SSW 8.0 mph 20.0 mph 74% 0.00 in BKN
17:30 61.6 °F 53.2 °F 29.99 in SSW 8.0 mph 17.0 mph 74% 0.00 in BKN
17:40 61.6 °F 53.3 °F 29.99 in SSW 6.0 mph 17.0 mph 74% 0.00 in BKN
17:50 61.7 °F 53.3 °F 29.99 in SSW 7.0 mph 16.0 mph 74% 0.00 in BKN
18:00 61.9 °F 53.5 °F 30.00 in SSW 10.0 mph 21.0 mph 74% 0.00 in BKN
18:10 62.0 °F 53.6 °F 30.00 in South 7.0 mph 20.0 mph 74% 0.00 in SCT
18:20 62.0 °F 53.6 °F 30.01 in SW 8.0 mph 15.0 mph 74% 0.00 in SCT
18:30 61.9 °F 53.5 °F 30.02 in SW 6.0 mph 12.0 mph 74% 0.00 in SCT
18:40 61.8 °F 53.4 °F 30.02 in SSW 9.0 mph 18.0 mph 74% 0.00 in SCT
18:50 61.7 °F 53.3 °F 30.02 in South 5.0 mph 13.0 mph 74% 0.00 in SCT
19:00 61.8 °F 53.4 °F 30.03 in SW 2.0 mph 14.0 mph 74% 0.00 in SCT
19:10 61.7 °F 53.3 °F 30.03 in SW 7.0 mph 14.0 mph 74% 0.00 in SCT
19:20 61.5 °F 53.1 °F 30.03 in SSW 6.0 mph 12.0 mph 74% 0.00 in SCT
19:30 61.3 °F 53.3 °F 30.03 in SSW 3.0 mph 10.0 mph 75% 0.00 in SCT
19:40 61.1 °F 53.1 °F 30.03 in SW 3.0 mph 9.0 mph 75% 0.00 in SCT
19:50 61.0 °F 53.0 °F 30.04 in SW 1.0 mph 10.0 mph 75% 0.00 in SCT
20:00 61.2 °F 53.2 °F 30.05 in SW 6.0 mph 12.0 mph 75% 0.00 in SCT
20:10 61.1 °F 53.1 °F 30.05 in SSW 5.0 mph 12.0 mph 75% 0.00 in FEW
20:20 61.0 °F 53.0 °F 30.06 in SW 6.0 mph 13.0 mph 75% 0.00 in FEW
20:30 61.0 °F 53.1 °F 30.05 in SSW 6.0 mph 10.0 mph 75% 0.00 in FEW
20:40 61.0 °F 53.0 °F 30.06 in SW 5.0 mph 12.0 mph 75% 0.00 in FEW
20:50 60.8 °F 53.2 °F 30.05 in SSW 3.0 mph 8.0 mph 76% 0.00 in FEW
21:00 60.7 °F 53.1 °F 30.06 in SW 1.0 mph 8.0 mph 76% 0.00 in FEW
21:10 60.5 °F 53.3 °F 30.06 in SW 1.0 mph 8.0 mph 77% 0.00 in SCT
21:20 60.2 °F 53.0 °F 30.06 in SW 2.0 mph 7.0 mph 77% 0.00 in SCT
21:30 60.0 °F 53.1 °F 30.07 in SW 1.0 mph 5.0 mph 78% 0.00 in SCT
21:40 59.7 °F 52.8 °F 30.07 in SW 1.0 mph 4.0 mph 78% 0.00 in SCT
21:50 59.6 °F 53.1 °F 30.07 in SW 2.0 mph 3.0 mph 79% 0.00 in SCT
22:00 59.6 °F 52.8 °F 30.07 in SW 2.0 mph 8.0 mph 78% 0.00 in SCT
22:10 59.5 °F 53.0 °F 30.05 in South 2.0 mph 9.0 mph 79% 0.00 in SCT
22:20 59.8 °F 52.9 °F 30.05 in SSW 3.0 mph 12.0 mph 78% 0.00 in SCT
22:30 60.0 °F 52.8 °F 30.06 in SW 5.0 mph 12.0 mph 77% 0.00 in SCT
22:40 60.1 °F 52.9 °F 30.07 in SW 3.0 mph 12.0 mph 77% 0.00 in SCT
22:50 59.8 °F 52.6 °F 30.06 in SSW 5.0 mph 13.0 mph 77% 0.00 in SCT
23:00 59.8 °F 52.6 °F 30.06 in SSW 7.0 mph 12.0 mph 77% 0.00 in SCT
23:10 60.2 °F 52.6 °F 30.07 in SSW 7.0 mph 14.0 mph 76% 0.00 in SCT
23:20 60.1 °F 52.5 °F 30.06 in SSW 7.0 mph 12.0 mph 76% 0.00 in SCT
23:30 60.2 °F 53.0 °F 30.06 in SW 7.0 mph 17.0 mph 77% 0.00 in SCT
23:40 60.0 °F 53.1 °F 30.08 in WSW 6.0 mph 17.0 mph 78% 0.00 in SCT
23:50 60.0 °F 53.1 °F 30.08 in SW 6.0 mph 13.0 mph 78% 0.00 in SCT
TarryTown NY Weather
Compliments of Weather Underground - 1.75 mb